DLH3HH EDDF-EDDM
Flight info
| Callsign | DLH3HH |
|---|---|
| Flight time | N/A |
| Altitude | 27000 |
| Route | CINDY8S/18 CINDY Z74 HAREM T104 ROKIL ROKIL1A |
| Aircraft | A320/M-SDE2E3FGIJ1LORWXYZ/HB1 |
Departure
| Time | 2026-04-15 16:50 |
|---|---|
| Airport | Frankfurt Main Airport (EDDF) |
Arrival
| Time | N/A |
|---|---|
| Airport | Munich Airport (EDDM) |
| Time | Latitude | Longitude | Altitude | Speed | Heading |
|---|---|---|---|---|---|
| 2026-04-15 16:20 | 50.04453 | 8.56431 | 364 ft | 0 kts | 154° |
| 2026-04-15 16:38 | 50.04457 | 8.56428 | 360 ft | 2 kts | 154° |
| 2026-04-15 16:38 | 50.04475 | 8.56414 | 364 ft | 3 kts | 155° |
| 2026-04-15 16:38 | 50.04494 | 8.56402 | 360 ft | 3 kts | 164° |
| 2026-04-15 16:39 | 50.04512 | 8.56397 | 359 ft | 3 kts | 197° |
| 2026-04-15 16:39 | 50.04522 | 8.56405 | 356 ft | 1 kts | 250° |
| 2026-04-15 16:39 | 50.04520 | 8.56400 | 356 ft | 2 kts | 250° |
| 2026-04-15 16:39 | 50.04515 | 8.56377 | 359 ft | 1 kts | 250° |
| 2026-04-15 16:40 | 50.04514 | 8.56374 | 358 ft | 0 kts | 250° |
| 2026-04-15 16:42 | 50.04507 | 8.56346 | 362 ft | 8 kts | 249° |
| 2026-04-15 16:42 | 50.04479 | 8.56227 | 362 ft | 14 kts | 250° |
| 2026-04-15 16:42 | 50.04441 | 8.56074 | 363 ft | 16 kts | 244° |
| 2026-04-15 16:42 | 50.04344 | 8.56055 | 358 ft | 16 kts | 158° |
| 2026-04-15 16:43 | 50.04278 | 8.56054 | 360 ft | 1 kts | 212° |
| 2026-04-15 16:43 | 50.04272 | 8.56046 | 358 ft | 1 kts | 223° |
| 2026-04-15 16:43 | 50.04265 | 8.56034 | 357 ft | 2 kts | 227° |
| 2026-04-15 16:43 | 50.04259 | 8.56015 | 356 ft | 3 kts | 244° |
| 2026-04-15 16:44 | 50.04246 | 8.55968 | 357 ft | 8 kts | 248° |
| 2026-04-15 16:44 | 50.04161 | 8.55932 | 359 ft | 21 kts | 159° |
| 2026-04-15 16:44 | 50.04040 | 8.55903 | 352 ft | 19 kts | 256° |
| 2026-04-15 16:44 | 50.03985 | 8.55687 | 349 ft | 26 kts | 249° |
| 2026-04-15 16:45 | 50.03949 | 8.55537 | 351 ft | 15 kts | 250° |
| 2026-04-15 16:45 | 50.03910 | 8.55368 | 351 ft | 18 kts | 250° |
| 2026-04-15 16:45 | 50.03861 | 8.55166 | 353 ft | 22 kts | 249° |
| 2026-04-15 16:45 | 50.03802 | 8.54925 | 352 ft | 25 kts | 252° |
| 2026-04-15 16:46 | 50.03741 | 8.54663 | 349 ft | 27 kts | 250° |
| 2026-04-15 16:46 | 50.03672 | 8.54378 | 348 ft | 29 kts | 249° |
| 2026-04-15 16:46 | 50.03601 | 8.54081 | 349 ft | 30 kts | 250° |
| 2026-04-15 16:46 | 50.03528 | 8.53774 | 337 ft | 30 kts | 250° |
| 2026-04-15 16:47 | 50.03474 | 8.53547 | 334 ft | 21 kts | 249° |
| 2026-04-15 16:47 | 50.03420 | 8.53323 | 337 ft | 23 kts | 249° |
| 2026-04-15 16:47 | 50.03363 | 8.53074 | 335 ft | 25 kts | 249° |
| 2026-04-15 16:47 | 50.03320 | 8.52906 | 333 ft | 2 kts | 249° |
| 2026-04-15 16:48 | 50.03343 | 8.52817 | 334 ft | 15 kts | 340° |
| 2026-04-15 16:48 | 50.03410 | 8.52817 | 333 ft | 2 kts | 327° |
| 2026-04-15 16:48 | 50.03436 | 8.52739 | 332 ft | 10 kts | 258° |
| 2026-04-15 16:48 | 50.03434 | 8.52730 | 331 ft | 0 kts | 252° |
| 2026-04-15 16:49 | 50.03432 | 8.52722 | 331 ft | 6 kts | 251° |
| 2026-04-15 16:49 | 50.03349 | 8.52587 | 336 ft | 27 kts | 190° |
| 2026-04-15 16:49 | 50.03000 | 8.52589 | 336 ft | 92 kts | 179° |
| 2026-04-15 16:49 | 50.02079 | 8.52577 | 491 ft | 152 kts | 184° |
| 2026-04-15 16:50 | 50.00984 | 8.52536 | 1201 ft | 159 kts | 181° |
| 2026-04-15 16:50 | 49.99878 | 8.52547 | 1796 ft | 168 kts | 180° |
| 2026-04-15 16:50 | 49.98624 | 8.52569 | 2178 ft | 192 kts | 180° |
| 2026-04-15 16:50 | 49.97240 | 8.52962 | 2589 ft | 216 kts | 155° |
| 2026-04-15 16:51 | 49.96038 | 8.54436 | 3328 ft | 227 kts | 128° |
| 2026-04-15 16:51 | 49.95206 | 8.56566 | 3846 ft | 233 kts | 121° |
| 2026-04-15 16:51 | 49.94432 | 8.58767 | 3979 ft | 232 kts | 114° |
| 2026-04-15 16:51 | 49.94025 | 8.61221 | 4014 ft | 249 kts | 96° |
| 2026-04-15 16:52 | 49.93922 | 8.64004 | 4012 ft | 262 kts | 94° |
| 2026-04-15 16:52 | 49.93686 | 8.66770 | 4009 ft | 263 kts | 107° |
| 2026-04-15 16:52 | 49.92974 | 8.69357 | 4013 ft | 262 kts | 123° |
| 2026-04-15 16:52 | 49.91818 | 8.71561 | 4025 ft | 260 kts | 138° |
| 2026-04-15 16:53 | 49.90401 | 8.73233 | 4024 ft | 260 kts | 146° |
| 2026-04-15 16:53 | 49.88979 | 8.74956 | 4026 ft | 260 kts | 136° |
| 2026-04-15 16:53 | 49.87841 | 8.77133 | 4028 ft | 261 kts | 122° |
| 2026-04-15 16:53 | 49.86943 | 8.79628 | 4486 ft | 268 kts | 120° |
| 2026-04-15 16:54 | 49.86042 | 8.82135 | 5611 ft | 267 kts | 120° |
| 2026-04-15 16:54 | 49.85127 | 8.84662 | 6629 ft | 270 kts | 121° |
| 2026-04-15 16:54 | 49.84199 | 8.87216 | 7507 ft | 275 kts | 121° |
| 2026-04-15 16:54 | 49.83251 | 8.89828 | 8368 ft | 281 kts | 121° |
| 2026-04-15 16:55 | 49.82279 | 8.92499 | 9208 ft | 288 kts | 121° |